Impacts TAF Board
For situational awareness. Not to be used for flight planning purposes.
IDs:

KPAE - Everett/Paine Fld, WA, US

Issued at 1146 UTC 20 Oct 2021
Updated at 1432 UTC 20 Oct 2021
Potential Impact None Slight Moderate High
Time1353Z 20/15Z 20/16Z 20/17Z 20/18Z 20/19Z 20/20Z 20/21Z 20/22Z 20/23Z 21/00Z 21/01Z 21/02Z 21/03Z>>
Type OBS PRVL PRVL PRVL PRVL PRVL PRVL PRVL PRVL PRVL PRVL PRVL PRVL PRVL
VIS 6 >6 >6 >6 6 6 6 6 >6 >6 >6 >6 >6 >6
CIG 55 50 40 40 18 18 18 18 35 35 35 35 45 45
Cover OVC OVC OVC OVC OVC OVC OVC OVC OVC OVC OVC OVC BKN BKN
FltCat VFR VFR VFR VFR MVFR MVFR MVFR MVFR VFR VFR VFR VFR VFR VFR
WX -RA BR -RA -RA -RA -RA BR -RA BR -RA BR -RA BR -SHRA -SHRA -SHRA -SHRA -- --
WDir 120 190 200 200 180 180 180 180 170 170 170 170 160 160
WSpd 7 12 13 13 15 15 15 15 12 12 12 12 11 11
WGst -- 20 21 21 22 22 22 22 18 18 18 18 -- --
Raw TAF
KPAE 201146Z 2012/2112 19012G20KT P6SM -RA BKN050 OVC070
  FM201600 20013G21KT P6SM -RA SCT020 OVC040
  FM201800 18015G22KT 6SM -RA BR BKN018 OVC030
  FM202200 17012G18KT P6SM -SHRA SCT015 OVC035
  FM210200 16011KT P6SM BKN045 BKN100
  FM210900 11004KT P6SM OVC040


Raw METAR
KPAE 201353Z 12007KT 6SM -RA BR OVC055 11/09 A2967 RMK AO2 SLP048 P0006 T01060089
KPAE 201253Z AUTO 16009KT 10SM -RA OVC070 11/08 A2966 RMK AO2 RAB1155 SLP043 P0000 T01110083
KPAE 201153Z AUTO 21012G21KT 10SM BKN070 BKN085 OVC110 12/08 A2964 RMK AO2 RAB21E50 SLP037 P0001 60001 70001 T01220078 10139 20094 53016

METAR Board
Radar Display
Forecast Discussion
For situational awareness. Not to be used for flight planning purposes.